createdAt,value
2023-05-16T00:00:46.511Z,20.16
2023-05-16T00:01:46.579Z,20.17
2023-05-16T00:02:48.830Z,20.16
2023-05-16T00:03:47.048Z,20.16
2023-05-16T00:04:46.657Z,20.16
2023-05-16T00:05:46.736Z,20.16
2023-05-16T00:06:46.759Z,20.15
2023-05-16T00:07:46.804Z,20.15
2023-05-16T00:08:46.847Z,20.14
2023-05-16T00:09:46.880Z,20.14
2023-05-16T00:10:46.941Z,20.15
2023-05-16T00:11:47.005Z,20.14
2023-05-16T00:12:47.053Z,20.15
2023-05-16T00:13:47.124Z,20.15
2023-05-16T00:14:47.213Z,20.15
2023-05-16T00:15:47.281Z,20.15
2023-05-16T00:16:47.426Z,20.14
2023-05-16T00:17:47.472Z,20.15
2023-05-16T00:18:47.551Z,20.14
2023-05-16T00:19:47.594Z,20.14
2023-05-16T00:20:47.659Z,20.14
2023-05-16T00:21:47.738Z,20.14
2023-05-16T00:22:47.804Z,20.13
2023-05-16T00:23:47.874Z,20.14
2023-05-16T00:24:47.967Z,20.13
2023-05-16T00:25:48.097Z,20.14
2023-05-16T00:26:48.110Z,20.13
2023-05-16T00:27:48.188Z,20.13
2023-05-16T00:28:48.253Z,20.13
2023-05-16T00:29:48.339Z,20.13
2023-05-16T00:30:48.415Z,20.12
2023-05-16T00:31:48.548Z,20.12
2023-05-16T00:32:48.558Z,20.12
2023-05-16T00:33:48.568Z,20.12
2023-05-16T00:34:48.663Z,20.13
2023-05-16T00:35:48.678Z,20.12
2023-05-16T00:36:48.721Z,20.11
2023-05-16T00:37:48.745Z,20.11
2023-05-16T00:38:48.765Z,20.10
2023-05-16T00:39:48.787Z,20.10
2023-05-16T00:40:48.818Z,20.10
2023-05-16T00:41:49.457Z,20.10
2023-05-16T00:42:48.855Z,20.11
2023-05-16T00:43:48.896Z,20.10
2023-05-16T00:44:48.966Z,20.10
2023-05-16T00:45:48.974Z,20.10
2023-05-16T00:46:48.998Z,20.09
2023-05-16T00:47:49.088Z,20.10
2023-05-16T00:48:49.017Z,20.10
2023-05-16T00:49:49.041Z,20.10
2023-05-16T00:50:49.069Z,20.09
2023-05-16T00:51:49.143Z,20.10
2023-05-16T00:52:49.120Z,20.10
2023-05-16T00:53:49.127Z,20.09
2023-05-16T00:54:49.141Z,20.10
2023-05-16T00:55:49.191Z,20.09
2023-05-16T00:56:49.217Z,20.09
2023-05-16T00:57:49.245Z,20.09
2023-05-16T00:58:49.256Z,20.09
2023-05-16T00:59:49.270Z,20.08
2023-05-16T01:00:49.286Z,20.09
2023-05-16T01:01:49.425Z,20.08
2023-05-16T01:02:49.347Z,20.09
2023-05-16T01:03:49.438Z,20.08
2023-05-16T01:04:49.363Z,20.08
2023-05-16T01:05:49.407Z,20.08
2023-05-16T01:06:49.455Z,20.07
2023-05-16T01:07:49.433Z,20.08
2023-05-16T01:08:49.452Z,20.07
2023-05-16T01:09:49.995Z,20.07
2023-05-16T01:10:49.495Z,20.07
2023-05-16T01:11:49.501Z,20.06
2023-05-16T01:12:49.605Z,20.07
2023-05-16T01:13:49.592Z,20.07
2023-05-16T01:14:49.537Z,20.07
2023-05-16T01:15:49.566Z,20.06
2023-05-16T01:16:49.577Z,20.06
2023-05-16T01:17:49.612Z,20.05
2023-05-16T01:18:49.630Z,20.06
2023-05-16T01:19:49.609Z,20.06
2023-05-16T01:20:49.628Z,20.05
2023-05-16T01:21:49.646Z,20.05
2023-05-16T01:22:49.654Z,20.05
2023-05-16T01:23:49.673Z,20.05
2023-05-16T01:24:49.683Z,20.06
2023-05-16T01:25:49.694Z,20.05
2023-05-16T01:26:49.711Z,20.05
2023-05-16T01:27:49.730Z,20.05
2023-05-16T01:28:49.804Z,20.04
2023-05-16T01:29:49.776Z,20.04
2023-05-16T01:30:49.799Z,20.04
2023-05-16T01:31:49.848Z,20.05
2023-05-16T01:32:49.866Z,20.04
2023-05-16T01:33:49.848Z,20.03
2023-05-16T01:34:49.943Z,20.04
2023-05-16T01:35:49.949Z,20.03
2023-05-16T01:36:49.887Z,20.03
2023-05-16T01:37:49.928Z,20.03
2023-05-16T01:38:49.948Z,20.03
2023-05-16T01:39:49.974Z,20.01
2023-05-16T01:40:50.484Z,20.03
2023-05-16T01:41:49.991Z,20.02
2023-05-16T01:42:50.010Z,20.02
2023-05-16T01:43:50.044Z,20.02
2023-05-16T01:44:50.037Z,20.02
2023-05-16T01:45:50.081Z,20.02
2023-05-16T01:46:50.167Z,20.02
2023-05-16T01:47:50.191Z,20.01
2023-05-16T01:48:50.160Z,20.02
2023-05-16T01:49:50.187Z,20.01
2023-05-16T01:50:50.292Z,20.02
2023-05-16T01:51:50.238Z,20.01
2023-05-16T01:52:50.246Z,20.01
2023-05-16T01:53:50.266Z,20.01
2023-05-16T01:54:50.980Z,20.01
2023-05-16T01:55:50.319Z,20.00
2023-05-16T01:56:50.328Z,20.00
2023-05-16T01:57:50.358Z,20.00
2023-05-16T01:58:50.364Z,20.00
2023-05-16T01:59:50.381Z,20.00
2023-05-16T02:00:50.444Z,20.00
2023-05-16T02:01:50.415Z,20.00
2023-05-16T02:02:50.486Z,19.99
2023-05-16T02:03:50.487Z,20.00
2023-05-16T02:04:50.491Z,19.99
2023-05-16T02:05:50.515Z,19.99
2023-05-16T02:06:50.518Z,19.99
2023-05-16T02:07:50.539Z,19.99
2023-05-16T02:08:50.561Z,19.99
2023-05-16T02:09:50.581Z,19.98
2023-05-16T02:10:50.607Z,19.98
2023-05-16T02:11:50.992Z,19.98
2023-05-16T02:12:50.641Z,19.97
2023-05-16T02:13:50.644Z,19.97
2023-05-16T02:14:50.675Z,19.97
2023-05-16T02:15:50.695Z,19.97
2023-05-16T02:16:50.741Z,19.97
2023-05-16T02:17:50.740Z,19.96
2023-05-16T02:18:50.784Z,19.96
2023-05-16T02:19:50.768Z,19.96
2023-05-16T02:20:50.793Z,19.96
2023-05-16T02:21:50.825Z,19.96
2023-05-16T02:22:50.858Z,19.96
2023-05-16T02:23:50.847Z,19.96
2023-05-16T02:24:50.903Z,19.96
2023-05-16T02:25:50.902Z,19.95
2023-05-16T02:26:50.934Z,19.95
2023-05-16T02:27:50.960Z,19.96
2023-05-16T02:28:50.969Z,19.95
2023-05-16T02:29:50.995Z,19.95
2023-05-16T02:30:51.566Z,19.95
2023-05-16T02:31:51.024Z,19.95
2023-05-16T02:32:51.067Z,19.94
2023-05-16T02:33:51.075Z,19.94
2023-05-16T02:34:51.077Z,19.95
2023-05-16T02:35:51.108Z,19.94
2023-05-16T02:36:51.123Z,19.94
2023-05-16T02:37:51.138Z,19.94
2023-05-16T02:38:51.170Z,19.94
2023-05-16T02:39:51.187Z,19.93
2023-05-16T02:40:51.264Z,19.94
2023-05-16T02:41:51.228Z,19.93
2023-05-16T02:42:51.269Z,19.93
2023-05-16T02:43:51.273Z,19.92
2023-05-16T02:44:51.300Z,19.92
2023-05-16T02:45:51.414Z,19.92
2023-05-16T02:46:51.399Z,19.93
2023-05-16T02:47:51.413Z,19.92
2023-05-16T02:48:51.405Z,19.92
2023-05-16T02:49:51.427Z,19.92
2023-05-16T02:50:51.530Z,19.92
2023-05-16T02:51:51.491Z,19.91
2023-05-16T02:52:51.511Z,19.91
2023-05-16T02:53:51.543Z,19.91
2023-05-16T02:55:04.784Z,19.91
2023-05-16T02:55:52.592Z,19.90
2023-05-16T02:56:51.620Z,19.91
2023-05-16T02:57:51.611Z,19.90
2023-05-16T02:58:51.723Z,19.90
2023-05-16T02:59:51.646Z,19.90
2023-05-16T03:00:51.677Z,19.90
2023-05-16T03:01:51.714Z,19.90
2023-05-16T03:02:51.903Z,19.89
2023-05-16T03:03:51.763Z,19.89
2023-05-16T03:04:51.715Z,19.90
2023-05-16T03:05:51.772Z,19.90
2023-05-16T03:06:51.746Z,19.89
2023-05-16T03:07:51.755Z,19.90
2023-05-16T03:08:51.764Z,19.89
2023-05-16T03:09:51.784Z,19.88
2023-05-16T03:10:51.803Z,19.88
2023-05-16T03:11:51.817Z,19.88
2023-05-16T03:12:51.841Z,19.87
2023-05-16T03:13:51.854Z,19.88
2023-05-16T03:14:51.879Z,19.87
2023-05-16T03:15:51.924Z,19.88
2023-05-16T03:16:51.887Z,19.88
2023-05-16T03:17:51.933Z,19.87
2023-05-16T03:18:51.965Z,19.88
2023-05-16T03:19:51.947Z,19.87
2023-05-16T03:20:51.950Z,19.87
2023-05-16T03:21:51.953Z,19.87
2023-05-16T03:22:51.974Z,19.86
2023-05-16T03:23:51.983Z,19.87
2023-05-16T03:24:52.046Z,19.86
2023-05-16T03:25:52.029Z,19.86
2023-05-16T03:26:52.034Z,19.85
2023-05-16T03:27:52.066Z,19.86
2023-05-16T03:28:52.147Z,19.84
2023-05-16T03:29:52.184Z,19.85
2023-05-16T03:30:52.124Z,19.85
2023-05-16T03:31:52.208Z,19.85
2023-05-16T03:32:52.213Z,19.85
2023-05-16T03:33:52.175Z,19.84
2023-05-16T03:34:52.191Z,19.84
2023-05-16T03:35:52.219Z,19.83
2023-05-16T03:36:52.289Z,19.83
2023-05-16T03:37:52.257Z,19.84
2023-05-16T03:38:52.281Z,19.83
2023-05-16T03:39:52.306Z,19.83
2023-05-16T03:40:52.344Z,19.83
2023-05-16T03:41:52.385Z,19.83
2023-05-16T03:42:52.415Z,19.83
2023-05-16T03:43:52.446Z,19.83
2023-05-16T03:44:52.478Z,19.82
2023-05-16T03:45:52.569Z,19.82
2023-05-16T03:46:52.538Z,19.82
2023-05-16T03:47:52.629Z,19.82
2023-05-16T03:48:52.610Z,19.82
2023-05-16T03:49:52.628Z,19.82
2023-05-16T03:50:52.671Z,19.82
2023-05-16T03:51:52.698Z,19.83
2023-05-16T03:52:52.712Z,19.82
2023-05-16T03:53:52.732Z,19.82
2023-05-16T03:54:52.754Z,19.81
2023-05-16T03:55:53.589Z,19.81
2023-05-16T03:56:52.821Z,19.81
2023-05-16T03:57:52.838Z,19.81
2023-05-16T03:58:52.867Z,19.79
2023-05-16T03:59:52.891Z,19.80
2023-05-16T04:00:52.928Z,19.80
2023-05-16T04:01:53.008Z,19.80
2023-05-16T04:02:53.318Z,19.80
2023-05-16T04:03:53.007Z,19.79
2023-05-16T04:04:53.034Z,19.80
2023-05-16T04:05:53.123Z,19.79
2023-05-16T04:06:53.106Z,19.79
2023-05-16T04:07:53.144Z,19.78
2023-05-16T04:08:53.175Z,19.78
2023-05-16T04:09:53.192Z,19.78
2023-05-16T04:10:53.228Z,19.78
2023-05-16T04:11:53.266Z,19.78
2023-05-16T04:12:53.294Z,19.77
2023-05-16T04:13:53.394Z,19.77
2023-05-16T04:14:53.359Z,19.77
2023-05-16T04:15:53.402Z,19.77
2023-05-16T04:16:53.435Z,19.78
2023-05-16T04:17:53.500Z,19.78
2023-05-16T04:18:53.516Z,19.77
2023-05-16T04:19:53.534Z,19.77
2023-05-16T04:20:53.562Z,19.76
2023-05-16T04:21:53.609Z,19.77
2023-05-16T04:22:53.640Z,19.76
2023-05-16T04:23:53.680Z,19.76
2023-05-16T04:24:53.713Z,19.75
2023-05-16T04:25:53.807Z,19.75
2023-05-16T04:26:53.787Z,19.76
2023-05-16T04:27:53.828Z,19.74
2023-05-16T04:28:53.871Z,19.75
2023-05-16T04:29:53.883Z,19.75
2023-05-16T04:30:53.925Z,19.74
2023-05-16T04:31:54.065Z,19.74
2023-05-16T04:32:54.043Z,19.74
2023-05-16T04:33:54.060Z,19.74
2023-05-16T04:34:54.084Z,19.73
2023-05-16T04:35:54.119Z,19.74
2023-05-16T04:36:54.153Z,19.73
2023-05-16T04:37:54.199Z,19.73
2023-05-16T04:38:54.240Z,19.73
2023-05-16T04:39:54.306Z,19.73
2023-05-16T04:40:54.347Z,19.73
2023-05-16T04:41:54.379Z,19.72
2023-05-16T04:42:54.430Z,19.72
2023-05-16T04:43:54.468Z,19.72
2023-05-16T04:44:54.517Z,19.72
2023-05-16T04:45:54.723Z,19.72
2023-05-16T04:46:54.626Z,19.72
2023-05-16T04:47:54.761Z,19.72
2023-05-16T04:48:54.690Z,19.72
2023-05-16T04:49:54.725Z,19.72
2023-05-16T04:50:54.779Z,19.72
2023-05-16T04:51:54.815Z,19.72
2023-05-16T04:52:56.480Z,19.71
2023-05-16T04:53:54.890Z,19.72
2023-05-16T04:54:54.934Z,19.71
2023-05-16T04:55:54.989Z,19.71
2023-05-16T04:56:55.015Z,19.70
2023-05-16T04:57:55.061Z,19.71
2023-05-16T04:58:55.106Z,19.70
2023-05-16T04:59:55.140Z,19.71
2023-05-16T05:00:55.180Z,19.71
2023-05-16T05:01:55.265Z,19.70
2023-05-16T05:02:55.315Z,19.70
2023-05-16T05:03:56.061Z,19.70
2023-05-16T05:04:55.475Z,19.70
2023-05-16T05:05:55.421Z,19.69
2023-05-16T05:06:55.444Z,19.69
2023-05-16T05:07:55.506Z,19.70
2023-05-16T05:08:55.534Z,19.70
2023-05-16T05:09:55.584Z,19.70
2023-05-16T05:10:55.638Z,19.69
2023-05-16T05:11:55.681Z,19.69
2023-05-16T05:12:55.802Z,19.69
2023-05-16T05:13:55.778Z,19.69
2023-05-16T05:14:55.817Z,19.68
2023-05-16T05:15:55.862Z,19.69
2023-05-16T05:16:55.994Z,19.68
2023-05-16T05:17:56.110Z,19.68
2023-05-16T05:18:56.057Z,19.67
2023-05-16T05:19:56.053Z,19.66
2023-05-16T05:20:56.112Z,19.62
2023-05-16T05:21:56.177Z,19.50
2023-05-16T05:22:56.253Z,19.34
2023-05-16T05:23:56.296Z,19.26
2023-05-16T05:24:56.368Z,19.17
2023-05-16T05:25:56.377Z,19.15
2023-05-16T05:26:56.422Z,19.15
2023-05-16T05:27:56.472Z,19.15
2023-05-16T05:29:04.499Z,19.16
2023-05-16T05:29:57.653Z,19.17
2023-05-16T05:30:56.702Z,19.18
2023-05-16T05:31:56.769Z,19.23
2023-05-16T05:32:56.833Z,19.27
2023-05-16T05:33:56.924Z,19.30
2023-05-16T05:34:56.963Z,19.33
2023-05-16T05:35:57.063Z,19.35
2023-05-16T05:36:57.112Z,19.36
2023-05-16T05:37:57.187Z,19.39
2023-05-16T05:38:57.338Z,19.43
2023-05-16T05:39:57.340Z,19.47
2023-05-16T05:40:57.582Z,19.50
2023-05-16T05:41:57.441Z,19.52
2023-05-16T05:42:57.492Z,19.55
2023-05-16T05:43:57.500Z,19.57
2023-05-16T05:44:58.094Z,19.59
2023-05-16T05:45:57.579Z,19.60
2023-05-16T05:46:57.575Z,19.62
2023-05-16T05:47:57.660Z,19.64
2023-05-16T05:48:57.594Z,19.65
2023-05-16T05:49:57.642Z,19.66
2023-05-16T05:50:58.085Z,19.67
2023-05-16T05:51:57.737Z,19.69
2023-05-16T05:52:57.801Z,19.70
2023-05-16T05:53:58.569Z,19.71
2023-05-16T05:54:57.943Z,19.72
2023-05-16T05:55:58.020Z,19.73
2023-05-16T05:56:58.068Z,19.75
2023-05-16T05:57:58.152Z,19.76
2023-05-16T05:58:58.184Z,19.77
2023-05-16T05:59:58.261Z,19.78
2023-05-16T06:00:58.316Z,19.80
2023-05-16T06:01:58.439Z,19.81
2023-05-16T06:02:58.498Z,19.83
2023-05-16T06:04:58.629Z,19.85
2023-05-16T06:05:58.684Z,19.87
2023-05-16T06:06:58.682Z,19.90
2023-05-16T06:07:58.747Z,19.91
2023-05-16T06:08:58.821Z,19.93
2023-05-16T06:09:58.858Z,19.94
2023-05-16T06:10:58.908Z,19.96
2023-05-16T06:11:58.959Z,19.98
2023-05-16T06:12:59.068Z,20.01
2023-05-16T06:13:59.060Z,20.03
2023-05-16T06:14:59.151Z,20.05
2023-05-16T06:15:59.267Z,20.06
2023-05-16T06:16:59.232Z,20.09
2023-05-16T06:17:59.231Z,20.11
2023-05-16T06:18:59.303Z,20.13
2023-05-16T06:19:59.273Z,20.18
2023-05-16T06:20:59.316Z,20.22
2023-05-16T06:21:59.364Z,20.22
2023-05-16T06:22:59.430Z,20.22
2023-05-16T06:23:59.492Z,20.22
2023-05-16T06:24:59.540Z,20.22
2023-05-16T06:25:59.616Z,20.21
2023-05-16T06:26:59.743Z,20.21
2023-05-16T06:27:59.727Z,20.20
2023-05-16T06:28:59.785Z,20.19
2023-05-16T06:29:59.840Z,20.19
2023-05-16T06:30:59.954Z,20.18
2023-05-16T06:32:00.670Z,20.17
2023-05-16T06:33:00.156Z,20.16
2023-05-16T06:34:00.146Z,20.15
2023-05-16T06:35:00.189Z,20.15
2023-05-16T06:36:00.261Z,20.15
2023-05-16T06:37:00.331Z,20.13
2023-05-16T06:38:01.096Z,20.13
2023-05-16T06:39:00.493Z,20.12
2023-05-16T06:40:00.567Z,20.11
2023-05-16T06:41:00.686Z,20.12
2023-05-16T06:42:00.671Z,20.10
2023-05-16T06:43:00.801Z,20.10
2023-05-16T06:44:00.784Z,20.09
2023-05-16T06:45:00.852Z,20.09
2023-05-16T06:46:00.900Z,20.09
2023-05-16T06:47:00.977Z,20.08
2023-05-16T06:48:01.022Z,20.08
2023-05-16T06:49:01.985Z,20.06
2023-05-16T06:50:01.061Z,20.06
2023-05-16T06:51:01.002Z,20.06
2023-05-16T06:52:01.013Z,20.06
2023-05-16T06:53:01.013Z,20.05
2023-05-16T06:54:02.826Z,20.06
2023-05-16T06:55:01.034Z,20.04
2023-05-16T06:56:01.038Z,20.05
2023-05-16T06:57:01.109Z,20.04
2023-05-16T06:58:01.061Z,20.03
2023-05-16T06:59:01.121Z,20.03
2023-05-16T07:00:01.108Z,20.03
2023-05-16T07:01:01.144Z,20.03
2023-05-16T07:02:01.114Z,20.02
2023-05-16T07:03:01.267Z,20.02
2023-05-16T07:04:01.388Z,20.02
2023-05-16T07:05:01.155Z,20.02
2023-05-16T07:06:01.193Z,20.01
2023-05-16T07:07:01.183Z,20.00
2023-05-16T07:08:01.199Z,20.00
2023-05-16T07:09:01.209Z,20.00
2023-05-16T07:10:01.220Z,19.99
2023-05-16T07:11:01.233Z,19.99
2023-05-16T07:12:01.243Z,19.99
2023-05-16T07:13:01.261Z,19.98
2023-05-16T07:14:01.302Z,19.98
2023-05-16T07:15:01.312Z,19.97
2023-05-16T07:16:01.280Z,19.96
2023-05-16T07:17:01.417Z,19.96
2023-05-16T07:18:01.382Z,19.94
2023-05-16T07:19:01.384Z,19.93
2023-05-16T07:20:04.361Z,19.94
2023-05-16T07:21:01.341Z,19.94
2023-05-16T07:22:01.502Z,19.96
2023-05-16T07:23:01.367Z,19.97
2023-05-16T07:24:01.398Z,19.97
2023-05-16T07:25:01.637Z,19.98
2023-05-16T07:26:01.388Z,19.99
2023-05-16T07:27:01.394Z,19.99
2023-05-16T07:28:01.388Z,20.00
2023-05-16T07:29:02.119Z,20.01
2023-05-16T07:30:01.385Z,20.02
2023-05-16T07:31:01.380Z,20.02
2023-05-16T07:32:01.444Z,20.02
2023-05-16T07:33:01.455Z,20.03
2023-05-16T07:34:01.386Z,20.04
2023-05-16T07:35:01.454Z,20.06
2023-05-16T07:36:15.390Z,20.08
2023-05-16T07:37:02.379Z,20.09
2023-05-16T07:38:02.136Z,20.10
2023-05-16T07:39:01.376Z,20.12
2023-05-16T07:40:01.389Z,20.13
2023-05-16T07:41:01.382Z,20.13
2023-05-16T07:42:01.392Z,20.13
2023-05-16T07:43:01.390Z,20.15
2023-05-16T07:44:01.396Z,20.15
2023-05-16T07:45:01.420Z,20.15
2023-05-16T07:46:01.492Z,20.14
2023-05-16T07:47:01.414Z,20.14
2023-05-16T07:48:01.479Z,20.15
2023-05-16T07:49:01.659Z,20.17
2023-05-16T07:50:01.553Z,20.18
2023-05-16T07:51:01.619Z,20.19
2023-05-16T07:52:02.130Z,20.20
2023-05-16T07:53:02.638Z,20.23
2023-05-16T07:54:01.839Z,20.24
2023-05-16T07:55:01.872Z,20.24
2023-05-16T07:56:01.953Z,20.25
2023-05-16T07:57:01.975Z,20.27
2023-05-16T07:58:02.051Z,20.29
2023-05-16T07:59:02.668Z,20.29
2023-05-16T08:00:02.100Z,20.31
2023-05-16T08:01:02.153Z,20.33
2023-05-16T08:02:02.247Z,20.34
2023-05-16T08:03:02.275Z,20.35
2023-05-16T08:04:02.310Z,20.37
2023-05-16T08:05:02.269Z,20.38
2023-05-16T08:06:02.394Z,20.40
2023-05-16T08:07:02.297Z,20.42
2023-05-16T08:08:02.312Z,20.44
2023-05-16T08:09:02.330Z,20.46
2023-05-16T08:10:03.142Z,20.48
2023-05-16T08:11:02.476Z,20.49
2023-05-16T08:12:02.420Z,20.49
2023-05-16T08:13:02.456Z,20.51
2023-05-16T08:14:02.466Z,20.51
2023-05-16T08:15:02.508Z,20.52
2023-05-16T08:16:02.641Z,20.52
2023-05-16T08:17:02.575Z,20.50
2023-05-16T08:18:02.685Z,20.49
2023-05-16T08:19:03.677Z,20.50
2023-05-16T08:20:02.715Z,20.50
2023-05-16T08:21:02.782Z,20.51
2023-05-16T08:22:02.857Z,20.54
2023-05-16T08:23:02.904Z,20.56
2023-05-16T08:24:02.960Z,20.58
2023-05-16T08:25:03.033Z,20.61
2023-05-16T08:26:03.120Z,20.64
2023-05-16T08:27:03.163Z,20.64
2023-05-16T08:28:03.273Z,20.66
2023-05-16T08:29:03.269Z,20.66
2023-05-16T08:30:03.379Z,20.66
2023-05-16T08:31:03.479Z,20.66
2023-05-16T08:32:03.410Z,20.67
2023-05-16T08:33:03.664Z,20.66
2023-05-16T08:34:03.481Z,20.67
2023-05-16T08:35:03.487Z,20.68
2023-05-16T08:36:03.511Z,20.67
2023-05-16T08:37:03.527Z,20.67
2023-05-16T08:38:03.553Z,20.67
2023-05-16T08:39:03.572Z,20.66
2023-05-16T08:40:03.554Z,20.66
2023-05-16T08:41:03.526Z,20.67
2023-05-16T08:42:03.550Z,20.67
2023-05-16T08:43:03.634Z,20.69
2023-05-16T08:44:04.150Z,20.71
2023-05-16T08:45:03.628Z,20.71
2023-05-16T08:46:03.606Z,20.72
2023-05-16T08:47:03.647Z,20.74
2023-05-16T08:48:03.752Z,20.75
2023-05-16T08:49:03.674Z,20.77
2023-05-16T08:50:03.722Z,20.78
2023-05-16T08:51:03.797Z,20.79
2023-05-16T08:52:03.821Z,20.80
2023-05-16T08:53:03.884Z,20.81
2023-05-16T08:54:03.951Z,20.83
2023-05-16T08:55:10.319Z,20.84
2023-05-16T08:56:04.986Z,20.85
2023-05-16T08:57:03.975Z,20.87
2023-05-16T08:58:03.979Z,20.87
2023-05-16T08:59:03.945Z,20.89
2023-05-16T09:00:03.926Z,20.90
2023-05-16T09:01:03.912Z,20.92
2023-05-16T09:02:03.905Z,20.92
2023-05-16T09:03:04.033Z,20.94
2023-05-16T09:04:04.061Z,20.96
2023-05-16T09:05:03.935Z,20.96
2023-05-16T09:06:05.432Z,20.98
2023-05-16T09:07:04.032Z,20.99
2023-05-16T09:08:04.085Z,21.00
2023-05-16T09:09:04.134Z,21.01
2023-05-16T09:10:04.274Z,21.03
2023-05-16T09:11:05.153Z,21.03
2023-05-16T09:12:04.254Z,21.03
2023-05-16T09:13:04.322Z,21.05
2023-05-16T09:14:05.176Z,21.06
2023-05-16T09:15:04.392Z,21.08
2023-05-16T09:16:04.432Z,21.10
2023-05-16T09:17:04.531Z,21.11
2023-05-16T09:18:04.525Z,21.07
2023-05-16T09:19:04.668Z,21.01
2023-05-16T09:20:04.519Z,20.94
2023-05-16T09:21:04.554Z,20.91
2023-05-16T09:22:04.646Z,20.93
2023-05-16T09:23:04.597Z,20.95
2023-05-16T09:24:04.610Z,20.97
2023-05-16T09:25:06.902Z,20.97
2023-05-16T09:26:04.592Z,20.99
2023-05-16T09:27:05.165Z,21.00
2023-05-16T09:28:04.558Z,21.00
2023-05-16T09:29:04.549Z,21.02
2023-05-16T09:30:05.172Z,21.03
2023-05-16T09:31:04.545Z,21.05
2023-05-16T09:32:04.492Z,21.06
2023-05-16T09:33:04.546Z,21.08
2023-05-16T09:34:04.447Z,21.10
2023-05-16T09:35:04.444Z,21.12
2023-05-16T09:36:04.400Z,21.13
2023-05-16T09:37:04.430Z,21.14
2023-05-16T09:38:04.379Z,21.15
2023-05-16T09:39:04.352Z,21.16
2023-05-16T09:40:04.327Z,21.16
2023-05-16T09:41:04.314Z,21.17
2023-05-16T09:42:04.281Z,21.17
2023-05-16T09:43:04.259Z,21.18
2023-05-16T09:44:04.246Z,21.19
2023-05-16T09:45:04.240Z,21.21
2023-05-16T09:46:04.338Z,21.22
2023-05-16T09:47:04.187Z,21.23
2023-05-16T09:48:04.207Z,21.25
2023-05-16T09:49:04.154Z,21.26
2023-05-16T09:50:04.153Z,21.26
2023-05-16T09:51:04.101Z,21.27
2023-05-16T09:52:04.095Z,21.28
2023-05-16T09:53:04.057Z,21.28
2023-05-16T09:54:04.033Z,21.29
2023-05-16T09:55:03.995Z,21.30
2023-05-16T09:56:03.999Z,21.31
2023-05-16T09:57:03.945Z,21.32
2023-05-16T09:58:03.913Z,21.32
2023-05-16T09:59:03.908Z,21.33
2023-05-16T10:00:03.889Z,21.34
2023-05-16T10:01:03.883Z,21.34
2023-05-16T10:02:04.122Z,21.35
2023-05-16T10:03:05.622Z,21.34
2023-05-16T10:04:04.107Z,21.34
2023-05-16T10:05:03.900Z,21.35
2023-05-16T10:06:03.894Z,21.34
2023-05-16T10:07:03.894Z,21.35
2023-05-16T10:08:03.932Z,21.35
2023-05-16T10:09:03.889Z,21.36
2023-05-16T10:10:03.897Z,21.37
2023-05-16T10:11:03.900Z,21.37
2023-05-16T10:12:03.930Z,21.37
2023-05-16T10:13:03.967Z,21.39
2023-05-16T10:14:06.016Z,21.39
2023-05-16T10:15:04.012Z,21.40
2023-05-16T10:16:04.022Z,21.39
2023-05-16T10:17:03.936Z,21.38
2023-05-16T10:18:04.155Z,21.36
2023-05-16T10:19:04.762Z,21.35
2023-05-16T10:20:03.881Z,21.35
2023-05-16T10:21:03.946Z,21.34
2023-05-16T10:22:03.862Z,21.33
2023-05-16T10:23:03.826Z,21.33
2023-05-16T10:24:03.838Z,21.31
2023-05-16T10:25:03.794Z,21.29
2023-05-16T10:26:03.786Z,21.28
2023-05-16T10:27:03.760Z,21.27
2023-05-16T10:28:03.748Z,21.25
2023-05-16T10:29:03.717Z,21.24
2023-05-16T10:30:03.737Z,21.22
2023-05-16T10:31:05.113Z,21.21
2023-05-16T10:32:03.725Z,21.19
2023-05-16T10:33:03.727Z,21.18
2023-05-16T10:34:03.695Z,21.16
2023-05-16T10:35:03.658Z,21.15
2023-05-16T10:36:03.663Z,21.14
2023-05-16T10:37:03.637Z,21.13
2023-05-16T10:38:04.558Z,21.12
2023-05-16T10:39:03.610Z,21.11
2023-05-16T10:40:03.622Z,21.10
2023-05-16T10:41:03.706Z,21.09
2023-05-16T10:42:03.625Z,21.07
2023-05-16T10:43:03.614Z,21.06
2023-05-16T10:44:03.609Z,21.05
2023-05-16T10:45:05.816Z,21.05
2023-05-16T10:46:03.813Z,21.04
2023-05-16T10:47:03.770Z,21.02
2023-05-16T10:48:04.877Z,21.01
2023-05-16T10:49:03.772Z,21.00
2023-05-16T10:50:03.854Z,20.99
2023-05-16T10:51:03.824Z,20.98
2023-05-16T10:52:03.776Z,20.98
2023-05-16T10:53:03.759Z,20.97
2023-05-16T10:54:03.764Z,20.97
2023-05-16T10:55:03.761Z,20.97
2023-05-16T10:56:03.766Z,20.95
2023-05-16T10:57:03.770Z,20.95
2023-05-16T10:58:03.846Z,20.94
2023-05-16T10:59:03.780Z,20.94
2023-05-16T11:00:03.783Z,20.93
2023-05-16T11:01:04.713Z,20.94
2023-05-16T11:02:03.937Z,20.92
2023-05-16T11:03:03.824Z,20.93
2023-05-16T11:04:03.895Z,20.93
2023-05-16T11:05:03.792Z,20.92
2023-05-16T11:06:03.912Z,20.92
2023-05-16T11:07:03.804Z,20.92
2023-05-16T11:08:03.801Z,20.91
2023-05-16T11:09:03.837Z,20.90
2023-05-16T11:10:03.841Z,20.91
2023-05-16T11:11:03.853Z,20.90
2023-05-16T11:12:04.049Z,20.90
2023-05-16T11:13:03.839Z,20.90
2023-05-16T11:14:03.844Z,20.89
2023-05-16T11:15:03.851Z,20.88
2023-05-16T11:16:03.859Z,20.88
2023-05-16T11:17:03.883Z,20.87
2023-05-16T11:18:03.942Z,20.87
2023-05-16T11:19:03.901Z,20.87
2023-05-16T11:20:03.909Z,20.86
2023-05-16T11:21:03.899Z,20.86
2023-05-16T11:22:03.925Z,20.86
2023-05-16T11:23:03.906Z,20.84
2023-05-16T11:24:03.911Z,20.85
2023-05-16T11:25:03.923Z,20.83
2023-05-16T11:26:03.918Z,20.84
2023-05-16T11:27:03.925Z,20.83
2023-05-16T11:28:03.923Z,20.83
2023-05-16T11:29:03.945Z,20.83
2023-05-16T11:30:04.254Z,20.82
2023-05-16T11:31:04.034Z,20.83
2023-05-16T11:32:04.034Z,20.82
2023-05-16T11:33:04.031Z,20.82
2023-05-16T11:34:03.973Z,20.81
2023-05-16T11:35:04.083Z,20.81
2023-05-16T11:36:15.061Z,20.82
2023-05-16T11:37:05.030Z,20.81
2023-05-16T11:38:03.985Z,20.81
2023-05-16T11:39:03.946Z,20.80
2023-05-16T11:40:04.055Z,20.79
2023-05-16T11:41:03.937Z,20.79
2023-05-16T11:42:03.941Z,20.79
2023-05-16T11:43:06.508Z,20.78
2023-05-16T11:44:03.928Z,20.79
2023-05-16T11:45:03.926Z,20.78
2023-05-16T11:46:03.905Z,20.77
2023-05-16T11:47:04.087Z,20.77
2023-05-16T11:48:03.952Z,20.76
2023-05-16T11:49:03.895Z,20.77
2023-05-16T11:50:03.953Z,20.75
2023-05-16T11:51:03.884Z,20.75
2023-05-16T11:52:03.882Z,20.75
2023-05-16T11:53:03.855Z,20.74
2023-05-16T11:54:03.881Z,20.74
2023-05-16T11:55:03.857Z,20.74
2023-05-16T11:56:03.837Z,20.74
2023-05-16T11:57:03.841Z,20.73
2023-05-16T11:58:03.831Z,20.73
2023-05-16T11:59:03.837Z,20.73
2023-05-16T12:00:03.834Z,20.73
2023-05-16T12:01:03.806Z,20.72
2023-05-16T12:02:03.818Z,20.72
2023-05-16T12:03:03.856Z,20.71
2023-05-16T12:04:03.887Z,20.72
2023-05-16T12:05:03.832Z,20.72
2023-05-16T12:06:03.773Z,20.71
2023-05-16T12:07:03.773Z,20.70
2023-05-16T12:08:03.745Z,20.71
2023-05-16T12:09:03.747Z,20.71
2023-05-16T12:10:04.817Z,20.70
2023-05-16T12:11:03.734Z,20.70
2023-05-16T12:12:03.721Z,20.70
2023-05-16T12:13:03.762Z,20.70
2023-05-16T12:14:03.698Z,20.69
2023-05-16T12:15:03.684Z,20.70
2023-05-16T12:16:03.677Z,20.69
2023-05-16T12:17:03.825Z,20.69
2023-05-16T12:18:03.776Z,20.69
2023-05-16T12:19:03.656Z,20.68
2023-05-16T12:20:03.653Z,20.67
2023-05-16T12:21:03.637Z,20.68
2023-05-16T12:22:03.693Z,20.67
2023-05-16T12:23:03.618Z,20.67
2023-05-16T12:24:03.620Z,20.67
2023-05-16T12:25:03.675Z,20.67
2023-05-16T12:26:03.758Z,20.66
2023-05-16T12:27:03.606Z,20.66
2023-05-16T12:28:04.235Z,20.66
2023-05-16T12:29:03.637Z,20.66
2023-05-16T12:30:03.628Z,20.66
2023-05-16T12:31:03.667Z,20.66
2023-05-16T12:32:03.791Z,20.66
2023-05-16T12:33:07.646Z,20.65
2023-05-16T12:34:03.704Z,20.64
2023-05-16T12:35:03.689Z,20.65
2023-05-16T12:36:03.700Z,20.64
2023-05-16T12:37:03.694Z,20.64
2023-05-16T12:38:03.699Z,20.64
2023-05-16T12:39:03.727Z,20.64
2023-05-16T12:40:03.695Z,20.64
2023-05-16T12:41:03.687Z,20.64
2023-05-16T12:42:03.753Z,20.64
2023-05-16T12:43:03.675Z,20.65
2023-05-16T12:44:03.677Z,20.64
2023-05-16T12:45:03.679Z,20.64
2023-05-16T12:46:03.766Z,20.64
2023-05-16T12:47:03.670Z,20.64
2023-05-16T12:48:03.707Z,20.64
2023-05-16T12:49:03.644Z,20.64
2023-05-16T12:50:03.640Z,20.63
2023-05-16T12:51:03.643Z,20.64
2023-05-16T12:52:03.634Z,20.63
2023-05-16T12:53:03.644Z,20.63
2023-05-16T12:54:09.695Z,20.62